Weather at Aeródromo de Guadalix de la SIerra

Public forecast

Using degrees Celsius for public forecast. Weather courtesy of forecast.io.

Closest aviation weather report (METAR) to Aeródromo de Guadalix de la SIerra

Closest report is Adolfo Suárez Madrid–Barajas Airport, 19.1 nm (35.4 km) S. Retrieved 2021/04/17 16:00 UTC (35 minutes ago):

LEMD 171600Z 12001KT 9999 FEW080 17/01 Q1016 NOSIG

Closest aviation forecast (TAF) to Aeródromo de Guadalix de la SIerra

Closest forecast is Base Aérea de Colmenar Viejo, 7.7 nm (14.2 km) SW. Retrieved 2021/04/17 12:00 UTC (5 hours ago):

TAF LETO 171100Z 1712/1812 03008KT CAVOK TX16/1716Z TN01/1806Z TAF LECV 171100Z 1712/1812 02009KT CAVOK TX14/1716Z TN00/1806Z